sensor_id;sensor_type;location;lat;lon;timestamp;P1;durP1;ratioP1;P2;durP2;ratioP2
73428;SDS011;61643;49.564;17.412;2022-12-29T00:01:16;10.85;;;4.80;;
73428;SDS011;61643;49.564;17.412;2022-12-29T00:03:41;19.33;;;7.45;;
73428;SDS011;61643;49.564;17.412;2022-12-29T00:06:07;17.40;;;6.93;;
73428;SDS011;61643;49.564;17.412;2022-12-29T00:08:32;20.33;;;8.15;;
73428;SDS011;61643;49.564;17.412;2022-12-29T00:11:25;16.45;;;7.45;;
73428;SDS011;61643;49.564;17.412;2022-12-29T00:13:52;14.88;;;6.88;;
73428;SDS011;61643;49.564;17.412;2022-12-29T00:16:37;22.60;;;8.98;;
73428;SDS011;61643;49.564;17.412;2022-12-29T00:19:05;21.90;;;7.47;;
73428;SDS011;61643;49.564;17.412;2022-12-29T00:21:30;17.13;;;7.10;;
73428;SDS011;61643;49.564;17.412;2022-12-29T00:24:16;18.85;;;8.38;;
73428;SDS011;61643;49.564;17.412;2022-12-29T00:26:53;19.75;;;7.85;;
73428;SDS011;61643;49.564;17.412;2022-12-29T00:29:40;15.27;;;6.38;;
73428;SDS011;61643;49.564;17.412;2022-12-29T00:32:24;17.38;;;5.80;;
73428;SDS011;61643;49.564;17.412;2022-12-29T00:35:09;12.93;;;6.53;;
73428;SDS011;61643;49.564;17.412;2022-12-29T00:37:46;14.15;;;6.07;;
73428;SDS011;61643;49.564;17.412;2022-12-29T00:40:31;17.13;;;6.43;;
73428;SDS011;61643;49.564;17.412;2022-12-29T00:43:15;15.57;;;7.80;;
73428;SDS011;61643;49.564;17.412;2022-12-29T00:45:59;17.67;;;7.32;;
73428;SDS011;61643;49.564;17.412;2022-12-29T00:48:24;16.20;;;7.30;;
73428;SDS011;61643;49.564;17.412;2022-12-29T00:51:08;13.80;;;6.93;;
73428;SDS011;61643;49.564;17.412;2022-12-29T00:53:33;17.10;;;6.82;;
73428;SDS011;61643;49.564;17.412;2022-12-29T00:55:59;14.25;;;6.47;;
73428;SDS011;61643;49.564;17.412;2022-12-29T00:58:29;15.55;;;6.43;;
73428;SDS011;61643;49.564;17.412;2022-12-29T01:01:05;14.02;;;6.40;;
73428;SDS011;61643;49.564;17.412;2022-12-29T01:03:32;13.75;;;5.38;;
73428;SDS011;61643;49.564;17.412;2022-12-29T01:06:02;11.85;;;5.47;;
73428;SDS011;61643;49.564;17.412;2022-12-29T01:08:29;9.93;;;5.00;;
73428;SDS011;61643;49.564;17.412;2022-12-29T01:10:58;12.07;;;4.93;;
73428;SDS011;61643;49.564;17.412;2022-12-29T01:13:24;13.15;;;5.70;;
73428;SDS011;61643;49.564;17.412;2022-12-29T01:15:53;16.40;;;6.00;;
73428;SDS011;61643;49.564;17.412;2022-12-29T01:18:19;13.30;;;5.10;;
73428;SDS011;61643;49.564;17.412;2022-12-29T01:20:45;9.15;;;5.10;;
73428;SDS011;61643;49.564;17.412;2022-12-29T01:23:10;11.30;;;4.93;;
73428;SDS011;61643;49.564;17.412;2022-12-29T01:25:36;8.82;;;4.35;;
73428;SDS011;61643;49.564;17.412;2022-12-29T01:28:01;6.47;;;3.83;;
73428;SDS011;61643;49.564;17.412;2022-12-29T01:30:27;7.90;;;3.75;;
73428;SDS011;61643;49.564;17.412;2022-12-29T01:32:52;8.17;;;3.90;;
73428;SDS011;61643;49.564;17.412;2022-12-29T01:35:18;7.47;;;4.00;;
73428;SDS011;61643;49.564;17.412;2022-12-29T01:37:43;10.05;;;3.90;;
73428;SDS011;61643;49.564;17.412;2022-12-29T01:40:09;8.80;;;4.53;;
73428;SDS011;61643;49.564;17.412;2022-12-29T01:42:34;9.20;;;4.20;;
73428;SDS011;61643;49.564;17.412;2022-12-29T01:45:01;9.33;;;4.20;;
73428;SDS011;61643;49.564;17.412;2022-12-29T01:47:41;9.48;;;4.35;;
73428;SDS011;61643;49.564;17.412;2022-12-29T01:50:11;10.77;;;4.35;;
73428;SDS011;61643;49.564;17.412;2022-12-29T01:53:15;8.73;;;4.50;;
73428;SDS011;61643;49.564;17.412;2022-12-29T01:55:44;11.00;;;4.55;;
73428;SDS011;61643;49.564;17.412;2022-12-29T01:58:14;11.75;;;5.22;;
73428;SDS011;61643;49.564;17.412;2022-12-29T02:00:42;8.43;;;4.43;;
73428;SDS011;61643;49.564;17.412;2022-12-29T02:03:08;10.52;;;4.82;;
73428;SDS011;61643;49.564;17.412;2022-12-29T02:05:39;9.63;;;4.63;;
73428;SDS011;61643;49.564;17.412;2022-12-29T02:08:09;10.75;;;4.90;;
73428;SDS011;61643;49.564;17.412;2022-12-29T02:10:36;13.60;;;5.22;;
73428;SDS011;61643;49.564;17.412;2022-12-29T02:13:04;10.60;;;4.70;;
73428;SDS011;61643;49.564;17.412;2022-12-29T02:16:19;10.32;;;4.90;;
73428;SDS011;61643;49.564;17.412;2022-12-29T02:21:45;8.05;;;3.45;;
73428;SDS011;61643;49.564;17.412;2022-12-29T02:33:08;9.65;;;3.90;;
73428;SDS011;61643;49.564;17.412;2022-12-29T02:36:06;8.65;;;4.13;;
73428;SDS011;61643;49.564;17.412;2022-12-29T02:38:54;11.02;;;4.10;;
73428;SDS011;61643;49.564;17.412;2022-12-29T02:49:08;7.43;;;3.83;;
73428;SDS011;61643;49.564;17.412;2022-12-29T02:51:46;7.20;;;3.85;;
73428;SDS011;61643;49.564;17.412;2022-12-29T02:54:13;7.07;;;3.53;;
73428;SDS011;61643;49.564;17.412;2022-12-29T02:57:00;9.35;;;4.10;;
73428;SDS011;61643;49.564;17.412;2022-12-29T02:59:26;6.03;;;3.40;;
73428;SDS011;61643;49.564;17.412;2022-12-29T03:01:57;9.50;;;4.10;;
73428;SDS011;61643;49.564;17.412;2022-12-29T03:07:40;7.80;;;3.45;;
73428;SDS011;61643;49.564;17.412;2022-12-29T03:15:44;8.98;;;3.85;;
73428;SDS011;61643;49.564;17.412;2022-12-29T03:21:34;7.07;;;3.50;;
73428;SDS011;61643;49.564;17.412;2022-12-29T03:24:25;7.40;;;3.30;;
73428;SDS011;61643;49.564;17.412;2022-12-29T03:26:55;8.38;;;3.47;;
73428;SDS011;61643;49.564;17.412;2022-12-29T03:29:23;8.82;;;4.10;;
73428;SDS011;61643;49.564;17.412;2022-12-29T03:31:49;8.25;;;4.18;;
73428;SDS011;61643;49.564;17.412;2022-12-29T03:34:18;6.13;;;2.53;;
73428;SDS011;61643;49.564;17.412;2022-12-29T03:36:58;8.98;;;4.18;;
73428;SDS011;61643;49.564;17.412;2022-12-29T03:39:29;9.43;;;4.53;;
73428;SDS011;61643;49.564;17.412;2022-12-29T03:41:57;7.25;;;4.05;;
73428;SDS011;61643;49.564;17.412;2022-12-29T03:44:40;8.63;;;4.00;;
73428;SDS011;61643;49.564;17.412;2022-12-29T03:47:07;6.18;;;3.10;;
73428;SDS011;61643;49.564;17.412;2022-12-29T03:49:34;8.48;;;4.03;;
73428;SDS011;61643;49.564;17.412;2022-12-29T03:52:00;7.82;;;3.35;;
73428;SDS011;61643;49.564;17.412;2022-12-29T03:54:25;7.73;;;3.87;;
73428;SDS011;61643;49.564;17.412;2022-12-29T03:56:51;6.88;;;3.95;;
73428;SDS011;61643;49.564;17.412;2022-12-29T03:59:16;6.90;;;3.60;;
73428;SDS011;61643;49.564;17.412;2022-12-29T04:01:42;8.47;;;4.23;;
73428;SDS011;61643;49.564;17.412;2022-12-29T04:04:07;9.57;;;3.80;;
73428;SDS011;61643;49.564;17.412;2022-12-29T04:06:33;7.93;;;4.13;;
73428;SDS011;61643;49.564;17.412;2022-12-29T04:08:58;9.00;;;4.40;;
73428;SDS011;61643;49.564;17.412;2022-12-29T04:11:24;12.20;;;4.75;;
73428;SDS011;61643;49.564;17.412;2022-12-29T04:13:49;12.57;;;5.15;;
73428;SDS011;61643;49.564;17.412;2022-12-29T04:16:14;11.30;;;5.00;;
73428;SDS011;61643;49.564;17.412;2022-12-29T04:18:40;7.60;;;4.05;;
73428;SDS011;61643;49.564;17.412;2022-12-29T04:21:05;9.73;;;4.47;;
73428;SDS011;61643;49.564;17.412;2022-12-29T04:23:32;9.23;;;4.72;;
73428;SDS011;61643;49.564;17.412;2022-12-29T04:25:59;8.82;;;4.30;;
73428;SDS011;61643;49.564;17.412;2022-12-29T04:28:25;9.63;;;4.05;;
73428;SDS011;61643;49.564;17.412;2022-12-29T04:30:50;13.30;;;4.53;;
73428;SDS011;61643;49.564;17.412;2022-12-29T04:33:16;9.80;;;4.03;;
73428;SDS011;61643;49.564;17.412;2022-12-29T04:35:41;8.53;;;4.10;;
73428;SDS011;61643;49.564;17.412;2022-12-29T04:38:08;9.85;;;4.45;;
73428;SDS011;61643;49.564;17.412;2022-12-29T04:40:33;12.68;;;5.25;;
73428;SDS011;61643;49.564;17.412;2022-12-29T04:42:58;7.77;;;4.07;;
73428;SDS011;61643;49.564;17.412;2022-12-29T04:45:24;8.40;;;4.33;;
73428;SDS011;61643;49.564;17.412;2022-12-29T04:47:49;10.23;;;4.60;;
73428;SDS011;61643;49.564;17.412;2022-12-29T04:50:14;10.23;;;5.03;;
73428;SDS011;61643;49.564;17.412;2022-12-29T04:52:40;11.50;;;4.53;;
73428;SDS011;61643;49.564;17.412;2022-12-29T04:55:06;9.77;;;4.63;;
73428;SDS011;61643;49.564;17.412;2022-12-29T04:57:31;11.55;;;5.18;;
73428;SDS011;61643;49.564;17.412;2022-12-29T04:59:57;12.95;;;5.88;;
73428;SDS011;61643;49.564;17.412;2022-12-29T05:02:22;15.00;;;6.00;;
73428;SDS011;61643;49.564;17.412;2022-12-29T05:04:48;26.45;;;9.80;;
73428;SDS011;61643;49.564;17.412;2022-12-29T05:07:13;14.52;;;5.75;;
73428;SDS011;61643;49.564;17.412;2022-12-29T05:09:39;14.30;;;6.37;;
73428;SDS011;61643;49.564;17.412;2022-12-29T05:12:04;13.50;;;5.30;;
73428;SDS011;61643;49.564;17.412;2022-12-29T05:14:30;12.90;;;5.43;;
73428;SDS011;61643;49.564;17.412;2022-12-29T05:16:55;13.77;;;4.80;;
73428;SDS011;61643;49.564;17.412;2022-12-29T05:19:20;14.23;;;5.10;;
73428;SDS011;61643;49.564;17.412;2022-12-29T05:21:46;12.10;;;5.18;;
73428;SDS011;61643;49.564;17.412;2022-12-29T05:24:11;9.73;;;4.83;;
73428;SDS011;61643;49.564;17.412;2022-12-29T05:26:36;10.30;;;4.85;;
73428;SDS011;61643;49.564;17.412;2022-12-29T05:29:02;14.40;;;5.97;;
73428;SDS011;61643;49.564;17.412;2022-12-29T05:31:28;18.17;;;7.90;;
73428;SDS011;61643;49.564;17.412;2022-12-29T05:33:53;19.50;;;8.00;;
73428;SDS011;61643;49.564;17.412;2022-12-29T05:36:18;16.93;;;8.13;;
73428;SDS011;61643;49.564;17.412;2022-12-29T05:38:44;15.80;;;7.70;;
73428;SDS011;61643;49.564;17.412;2022-12-29T05:41:09;12.90;;;6.87;;
73428;SDS011;61643;49.564;17.412;2022-12-29T05:43:35;11.13;;;6.17;;
73428;SDS011;61643;49.564;17.412;2022-12-29T05:46:00;12.70;;;6.03;;
73428;SDS011;61643;49.564;17.412;2022-12-29T05:48:26;11.82;;;6.15;;
73428;SDS011;61643;49.564;17.412;2022-12-29T05:50:52;15.73;;;6.47;;
73428;SDS011;61643;49.564;17.412;2022-12-29T05:53:17;10.98;;;5.85;;
73428;SDS011;61643;49.564;17.412;2022-12-29T05:55:46;11.02;;;4.55;;
73428;SDS011;61643;49.564;17.412;2022-12-29T05:58:12;9.70;;;4.97;;
73428;SDS011;61643;49.564;17.412;2022-12-29T06:00:38;10.75;;;4.60;;
73428;SDS011;61643;49.564;17.412;2022-12-29T06:03:03;9.43;;;4.60;;
73428;SDS011;61643;49.564;17.412;2022-12-29T06:05:29;9.32;;;4.53;;
73428;SDS011;61643;49.564;17.412;2022-12-29T06:07:55;10.55;;;4.35;;
73428;SDS011;61643;49.564;17.412;2022-12-29T06:10:20;9.17;;;4.77;;
73428;SDS011;61643;49.564;17.412;2022-12-29T06:12:45;9.57;;;4.75;;
73428;SDS011;61643;49.564;17.412;2022-12-29T06:15:11;8.98;;;4.68;;
73428;SDS011;61643;49.564;17.412;2022-12-29T06:17:37;13.95;;;5.30;;
73428;SDS011;61643;49.564;17.412;2022-12-29T06:20:02;9.07;;;4.73;;
73428;SDS011;61643;49.564;17.412;2022-12-29T06:22:28;11.07;;;4.88;;
73428;SDS011;61643;49.564;17.412;2022-12-29T06:24:53;9.27;;;4.47;;
73428;SDS011;61643;49.564;17.412;2022-12-29T06:27:19;9.07;;;4.67;;
73428;SDS011;61643;49.564;17.412;2022-12-29T06:29:44;10.23;;;4.97;;
73428;SDS011;61643;49.564;17.412;2022-12-29T06:32:10;8.07;;;4.68;;
73428;SDS011;61643;49.564;17.412;2022-12-29T06:34:35;13.35;;;6.63;;
73428;SDS011;61643;49.564;17.412;2022-12-29T06:37:01;21.75;;;7.38;;
73428;SDS011;61643;49.564;17.412;2022-12-29T06:39:27;18.20;;;8.18;;
73428;SDS011;61643;49.564;17.412;2022-12-29T06:41:52;16.98;;;7.47;;
73428;SDS011;61643;49.564;17.412;2022-12-29T06:44:18;15.55;;;6.28;;
73428;SDS011;61643;49.564;17.412;2022-12-29T06:46:45;13.20;;;5.85;;
73428;SDS011;61643;49.564;17.412;2022-12-29T06:49:10;16.60;;;5.73;;
73428;SDS011;61643;49.564;17.412;2022-12-29T06:51:35;11.65;;;5.38;;
73428;SDS011;61643;49.564;17.412;2022-12-29T06:54:01;11.57;;;5.23;;
73428;SDS011;61643;49.564;17.412;2022-12-29T06:56:26;8.88;;;4.78;;
73428;SDS011;61643;49.564;17.412;2022-12-29T06:58:52;12.63;;;5.18;;
73428;SDS011;61643;49.564;17.412;2022-12-29T07:01:17;12.73;;;6.38;;
73428;SDS011;61643;49.564;17.412;2022-12-29T07:03:43;11.83;;;5.03;;
73428;SDS011;61643;49.564;17.412;2022-12-29T07:06:08;14.83;;;5.50;;
73428;SDS011;61643;49.564;17.412;2022-12-29T07:08:33;11.18;;;5.18;;
73428;SDS011;61643;49.564;17.412;2022-12-29T07:10:59;10.90;;;5.53;;
73428;SDS011;61643;49.564;17.412;2022-12-29T07:13:24;13.33;;;5.30;;
73428;SDS011;61643;49.564;17.412;2022-12-29T07:15:49;12.20;;;5.10;;
73428;SDS011;61643;49.564;17.412;2022-12-29T07:18:15;11.70;;;4.83;;
73428;SDS011;61643;49.564;17.412;2022-12-29T07:20:40;12.87;;;5.23;;
73428;SDS011;61643;49.564;17.412;2022-12-29T07:23:05;11.60;;;4.77;;
73428;SDS011;61643;49.564;17.412;2022-12-29T07:25:31;12.60;;;4.97;;
73428;SDS011;61643;49.564;17.412;2022-12-29T07:27:56;11.73;;;5.20;;
73428;SDS011;61643;49.564;17.412;2022-12-29T07:30:22;9.77;;;4.27;;
73428;SDS011;61643;49.564;17.412;2022-12-29T07:32:47;11.70;;;5.47;;
73428;SDS011;61643;49.564;17.412;2022-12-29T07:35:12;11.47;;;5.33;;
73428;SDS011;61643;49.564;17.412;2022-12-29T07:37:38;13.07;;;5.87;;
73428;SDS011;61643;49.564;17.412;2022-12-29T07:40:03;13.40;;;6.05;;
73428;SDS011;61643;49.564;17.412;2022-12-29T07:42:30;13.25;;;6.22;;
73428;SDS011;61643;49.564;17.412;2022-12-29T07:44:55;12.27;;;5.78;;
73428;SDS011;61643;49.564;17.412;2022-12-29T07:47:21;13.37;;;6.23;;
73428;SDS011;61643;49.564;17.412;2022-12-29T07:49:46;15.67;;;6.10;;
73428;SDS011;61643;49.564;17.412;2022-12-29T07:52:12;13.88;;;6.20;;
73428;SDS011;61643;49.564;17.412;2022-12-29T07:54:37;15.30;;;6.87;;
73428;SDS011;61643;49.564;17.412;2022-12-29T07:57:03;9.97;;;4.13;;
73428;SDS011;61643;49.564;17.412;2022-12-29T07:59:29;10.48;;;5.32;;
73428;SDS011;61643;49.564;17.412;2022-12-29T08:01:55;10.98;;;5.40;;
73428;SDS011;61643;49.564;17.412;2022-12-29T08:04:20;13.05;;;5.35;;
73428;SDS011;61643;49.564;17.412;2022-12-29T08:06:46;14.25;;;5.97;;
73428;SDS011;61643;49.564;17.412;2022-12-29T08:09:12;13.13;;;5.97;;
73428;SDS011;61643;49.564;17.412;2022-12-29T08:11:37;14.93;;;6.05;;
73428;SDS011;61643;49.564;17.412;2022-12-29T08:14:03;12.70;;;6.05;;
73428;SDS011;61643;49.564;17.412;2022-12-29T08:16:29;13.13;;;6.97;;
73428;SDS011;61643;49.564;17.412;2022-12-29T08:18:54;17.58;;;7.25;;
73428;SDS011;61643;49.564;17.412;2022-12-29T08:21:20;13.90;;;6.87;;
73428;SDS011;61643;49.564;17.412;2022-12-29T08:23:45;17.75;;;7.57;;
73428;SDS011;61643;49.564;17.412;2022-12-29T08:26:12;14.10;;;6.78;;
73428;SDS011;61643;49.564;17.412;2022-12-29T08:28:37;14.33;;;6.70;;
73428;SDS011;61643;49.564;17.412;2022-12-29T08:31:03;16.77;;;7.53;;
73428;SDS011;61643;49.564;17.412;2022-12-29T08:33:28;18.35;;;7.35;;
73428;SDS011;61643;49.564;17.412;2022-12-29T08:36:01;16.98;;;6.90;;
73428;SDS011;61643;49.564;17.412;2022-12-29T08:38:28;13.38;;;6.72;;
73428;SDS011;61643;49.564;17.412;2022-12-29T08:40:55;18.13;;;7.28;;
73428;SDS011;61643;49.564;17.412;2022-12-29T08:43:22;17.73;;;6.30;;
73428;SDS011;61643;49.564;17.412;2022-12-29T08:45:48;15.05;;;7.57;;
73428;SDS011;61643;49.564;17.412;2022-12-29T08:48:13;17.27;;;7.63;;
73428;SDS011;61643;49.564;17.412;2022-12-29T08:50:42;16.23;;;6.25;;
73428;SDS011;61643;49.564;17.412;2022-12-29T08:53:08;16.63;;;7.07;;
73428;SDS011;61643;49.564;17.412;2022-12-29T08:55:33;12.77;;;6.67;;
73428;SDS011;61643;49.564;17.412;2022-12-29T08:57:58;15.13;;;6.83;;
73428;SDS011;61643;49.564;17.412;2022-12-29T09:00:24;13.37;;;6.97;;
73428;SDS011;61643;49.564;17.412;2022-12-29T09:02:50;18.38;;;7.35;;
73428;SDS011;61643;49.564;17.412;2022-12-29T09:05:15;15.03;;;6.93;;
73428;SDS011;61643;49.564;17.412;2022-12-29T09:07:41;16.10;;;8.10;;
73428;SDS011;61643;49.564;17.412;2022-12-29T09:10:06;13.82;;;7.55;;
73428;SDS011;61643;49.564;17.412;2022-12-29T09:12:32;34.00;;;13.73;;
73428;SDS011;61643;49.564;17.412;2022-12-29T09:14:57;25.95;;;12.38;;
73428;SDS011;61643;49.564;17.412;2022-12-29T09:17:23;12.90;;;7.30;;
73428;SDS011;61643;49.564;17.412;2022-12-29T09:20:07;13.88;;;6.68;;
73428;SDS011;61643;49.564;17.412;2022-12-29T09:22:34;11.77;;;6.20;;
73428;SDS011;61643;49.564;17.412;2022-12-29T09:24:59;12.50;;;6.18;;
73428;SDS011;61643;49.564;17.412;2022-12-29T09:27:25;14.90;;;6.47;;
73428;SDS011;61643;49.564;17.412;2022-12-29T09:29:50;13.37;;;7.03;;
73428;SDS011;61643;49.564;17.412;2022-12-29T09:32:15;11.90;;;6.33;;
73428;SDS011;61643;49.564;17.412;2022-12-29T09:34:41;12.70;;;6.30;;
73428;SDS011;61643;49.564;17.412;2022-12-29T09:37:06;16.43;;;9.60;;
73428;SDS011;61643;49.564;17.412;2022-12-29T09:39:31;13.80;;;6.78;;
73428;SDS011;61643;49.564;17.412;2022-12-29T09:47:35;15.85;;;7.55;;
73428;SDS011;61643;49.564;17.412;2022-12-29T09:50:03;28.90;;;10.57;;
73428;SDS011;61643;49.564;17.412;2022-12-29T09:52:35;37.20;;;13.75;;
73428;SDS011;61643;49.564;17.412;2022-12-29T09:55:13;15.48;;;7.85;;
73428;SDS011;61643;49.564;17.412;2022-12-29T09:57:48;27.80;;;10.40;;
73428;SDS011;61643;49.564;17.412;2022-12-29T10:00:21;14.38;;;7.15;;
73428;SDS011;61643;49.564;17.412;2022-12-29T10:02:58;10.93;;;6.50;;
73428;SDS011;61643;49.564;17.412;2022-12-29T10:10:54;21.08;;;9.35;;
73428;SDS011;61643;49.564;17.412;2022-12-29T10:16:20;14.13;;;7.22;;
73428;SDS011;61643;49.564;17.412;2022-12-29T10:24:34;13.18;;;6.55;;
73428;SDS011;61643;49.564;17.412;2022-12-29T10:27:02;14.30;;;7.60;;
73428;SDS011;61643;49.564;17.412;2022-12-29T10:29:35;20.27;;;9.43;;
73428;SDS011;61643;49.564;17.412;2022-12-29T10:34:36;17.58;;;7.95;;
73428;SDS011;61643;49.564;17.412;2022-12-29T10:40:12;19.05;;;8.38;;
73428;SDS011;61643;49.564;17.412;2022-12-29T10:42:45;17.88;;;8.98;;
73428;SDS011;61643;49.564;17.412;2022-12-29T10:45:15;16.48;;;8.48;;
73428;SDS011;61643;49.564;17.412;2022-12-29T10:50:40;19.98;;;10.48;;
73428;SDS011;61643;49.564;17.412;2022-12-29T10:53:07;20.10;;;8.85;;
73428;SDS011;61643;49.564;17.412;2022-12-29T10:55:44;22.40;;;10.85;;
73428;SDS011;61643;49.564;17.412;2022-12-29T10:58:11;23.27;;;10.50;;
73428;SDS011;61643;49.564;17.412;2022-12-29T11:00:38;15.77;;;7.88;;
73428;SDS011;61643;49.564;17.412;2022-12-29T11:03:10;15.82;;;7.72;;
73428;SDS011;61643;49.564;17.412;2022-12-29T11:08:55;17.73;;;7.60;;
73428;SDS011;61643;49.564;17.412;2022-12-29T11:11:27;15.32;;;8.50;;
73428;SDS011;61643;49.564;17.412;2022-12-29T11:14:02;20.08;;;10.18;;
73428;SDS011;61643;49.564;17.412;2022-12-29T11:16:37;38.33;;;16.45;;
73428;SDS011;61643;49.564;17.412;2022-12-29T11:19:02;23.38;;;10.88;;
73428;SDS011;61643;49.564;17.412;2022-12-29T11:21:36;18.85;;;8.40;;
73428;SDS011;61643;49.564;17.412;2022-12-29T11:24:17;15.23;;;7.80;;
73428;SDS011;61643;49.564;17.412;2022-12-29T11:26:43;15.27;;;7.50;;
73428;SDS011;61643;49.564;17.412;2022-12-29T11:31:44;15.73;;;7.72;;
73428;SDS011;61643;49.564;17.412;2022-12-29T11:34:19;18.50;;;8.00;;
73428;SDS011;61643;49.564;17.412;2022-12-29T11:36:58;17.75;;;7.70;;
73428;SDS011;61643;49.564;17.412;2022-12-29T11:39:32;18.05;;;8.63;;
73428;SDS011;61643;49.564;17.412;2022-12-29T11:42:22;16.95;;;8.00;;
73428;SDS011;61643;49.564;17.412;2022-12-29T11:44:57;19.55;;;8.50;;
73428;SDS011;61643;49.564;17.412;2022-12-29T11:47:38;17.40;;;8.18;;
73428;SDS011;61643;49.564;17.412;2022-12-29T11:50:04;22.90;;;9.63;;
73428;SDS011;61643;49.564;17.412;2022-12-29T11:52:34;17.85;;;8.02;;
73428;SDS011;61643;49.564;17.412;2022-12-29T11:55:05;17.38;;;8.40;;
73428;SDS011;61643;49.564;17.412;2022-12-29T11:57:41;16.67;;;8.32;;
73428;SDS011;61643;49.564;17.412;2022-12-29T12:00:14;33.78;;;15.32;;
73428;SDS011;61643;49.564;17.412;2022-12-29T12:02:48;23.02;;;10.70;;
73428;SDS011;61643;49.564;17.412;2022-12-29T12:05:40;19.17;;;9.60;;
73428;SDS011;61643;49.564;17.412;2022-12-29T12:10:46;22.30;;;11.03;;
73428;SDS011;61643;49.564;17.412;2022-12-29T12:13:19;21.48;;;9.88;;
73428;SDS011;61643;49.564;17.412;2022-12-29T12:21:43;19.55;;;8.63;;
73428;SDS011;61643;49.564;17.412;2022-12-29T12:24:17;20.10;;;9.30;;
73428;SDS011;61643;49.564;17.412;2022-12-29T12:27:21;21.00;;;9.63;;
73428;SDS011;61643;49.564;17.412;2022-12-29T12:30:14;17.10;;;9.07;;
73428;SDS011;61643;49.564;17.412;2022-12-29T12:32:47;18.58;;;9.43;;
73428;SDS011;61643;49.564;17.412;2022-12-29T12:35:26;21.33;;;9.85;;
73428;SDS011;61643;49.564;17.412;2022-12-29T12:40:53;19.50;;;9.05;;
73428;SDS011;61643;49.564;17.412;2022-12-29T12:46:34;22.98;;;11.32;;
73428;SDS011;61643;49.564;17.412;2022-12-29T13:10:47;20.75;;;9.25;;
73428;SDS011;61643;49.564;17.412;2022-12-29T13:19:04;22.38;;;10.38;;
73428;SDS011;61643;49.564;17.412;2022-12-29T13:27:12;23.95;;;11.73;;
73428;SDS011;61643;49.564;17.412;2022-12-29T13:29:50;22.73;;;11.15;;
73428;SDS011;61643;49.564;17.412;2022-12-29T13:38:23;27.38;;;12.00;;
73428;SDS011;61643;49.564;17.412;2022-12-29T13:41:00;27.13;;;12.27;;
73428;SDS011;61643;49.564;17.412;2022-12-29T13:43:29;24.85;;;11.95;;
73428;SDS011;61643;49.564;17.412;2022-12-29T13:46:01;33.80;;;14.00;;
73428;SDS011;61643;49.564;17.412;2022-12-29T13:48:36;25.30;;;11.50;;
73428;SDS011;61643;49.564;17.412;2022-12-29T13:51:05;21.90;;;11.15;;
73428;SDS011;61643;49.564;17.412;2022-12-29T13:56:23;25.38;;;12.70;;
73428;SDS011;61643;49.564;17.412;2022-12-29T13:59:03;30.65;;;14.20;;
73428;SDS011;61643;49.564;17.412;2022-12-29T14:05:27;27.25;;;12.07;;
73428;SDS011;61643;49.564;17.412;2022-12-29T14:07:47;23.50;;;11.73;;
73428;SDS011;61643;49.564;17.412;2022-12-29T14:13:22;18.17;;;9.73;;
73428;SDS011;61643;49.564;17.412;2022-12-29T14:15:51;20.52;;;11.23;;
73428;SDS011;61643;49.564;17.412;2022-12-29T14:18:22;25.75;;;12.52;;
73428;SDS011;61643;49.564;17.412;2022-12-29T14:20:57;27.98;;;13.07;;
73428;SDS011;61643;49.564;17.412;2022-12-29T14:28:30;36.03;;;15.35;;
73428;SDS011;61643;49.564;17.412;2022-12-29T14:31:04;30.33;;;14.73;;
73428;SDS011;61643;49.564;17.412;2022-12-29T14:33:31;36.28;;;17.55;;
73428;SDS011;61643;49.564;17.412;2022-12-29T14:38:45;28.35;;;15.25;;
73428;SDS011;61643;49.564;17.412;2022-12-29T14:41:15;41.38;;;19.33;;
73428;SDS011;61643;49.564;17.412;2022-12-29T14:43:57;39.90;;;19.60;;
73428;SDS011;61643;49.564;17.412;2022-12-29T14:46:24;42.67;;;19.70;;
73428;SDS011;61643;49.564;17.412;2022-12-29T14:49:08;47.60;;;21.58;;
73428;SDS011;61643;49.564;17.412;2022-12-29T14:51:42;34.50;;;16.80;;
73428;SDS011;61643;49.564;17.412;2022-12-29T14:56:58;40.50;;;18.00;;
73428;SDS011;61643;49.564;17.412;2022-12-29T14:59:25;58.42;;;23.58;;
73428;SDS011;61643;49.564;17.412;2022-12-29T15:01:52;55.80;;;23.52;;
73428;SDS011;61643;49.564;17.412;2022-12-29T15:04:21;48.00;;;22.98;;
73428;SDS011;61643;49.564;17.412;2022-12-29T15:06:50;62.17;;;30.60;;
73428;SDS011;61643;49.564;17.412;2022-12-29T15:12:22;68.45;;;31.52;;
73428;SDS011;61643;49.564;17.412;2022-12-29T15:14:52;53.00;;;25.25;;
73428;SDS011;61643;49.564;17.412;2022-12-29T15:17:29;47.47;;;22.52;;
73428;SDS011;61643;49.564;17.412;2022-12-29T15:19:57;33.17;;;16.58;;
73428;SDS011;61643;49.564;17.412;2022-12-29T15:22:41;29.33;;;14.07;;
73428;SDS011;61643;49.564;17.412;2022-12-29T15:25:14;39.65;;;20.35;;
73428;SDS011;61643;49.564;17.412;2022-12-29T15:27:42;98.07;;;41.15;;
73428;SDS011;61643;49.564;17.412;2022-12-29T15:30:13;48.15;;;22.45;;
73428;SDS011;61643;49.564;17.412;2022-12-29T15:32:40;45.65;;;23.45;;
73428;SDS011;61643;49.564;17.412;2022-12-29T15:38:16;40.78;;;21.80;;
73428;SDS011;61643;49.564;17.412;2022-12-29T15:40:49;38.50;;;20.65;;
73428;SDS011;61643;49.564;17.412;2022-12-29T15:43:33;39.08;;;21.13;;
73428;SDS011;61643;49.564;17.412;2022-12-29T15:46:12;43.33;;;21.83;;
73428;SDS011;61643;49.564;17.412;2022-12-29T15:48:38;42.35;;;22.13;;
73428;SDS011;61643;49.564;17.412;2022-12-29T15:51:38;42.88;;;21.17;;
73428;SDS011;61643;49.564;17.412;2022-12-29T15:54:02;45.78;;;22.50;;
73428;SDS011;61643;49.564;17.412;2022-12-29T15:56:28;41.92;;;22.17;;
73428;SDS011;61643;49.564;17.412;2022-12-29T15:58:55;43.92;;;21.73;;
73428;SDS011;61643;49.564;17.412;2022-12-29T16:03:52;26.67;;;11.27;;
73428;SDS011;61643;49.564;17.412;2022-12-29T16:06:29;25.67;;;12.38;;
73428;SDS011;61643;49.564;17.412;2022-12-29T16:09:16;49.88;;;17.50;;
73428;SDS011;61643;49.564;17.412;2022-12-29T16:11:56;38.20;;;14.88;;
73428;SDS011;61643;49.564;17.412;2022-12-29T16:14:28;37.63;;;15.32;;
73428;SDS011;61643;49.564;17.412;2022-12-29T16:16:57;34.38;;;13.95;;
73428;SDS011;61643;49.564;17.412;2022-12-29T16:19:27;50.17;;;19.20;;
73428;SDS011;61643;49.564;17.412;2022-12-29T16:21:55;45.03;;;17.20;;
73428;SDS011;61643;49.564;17.412;2022-12-29T16:24:24;47.97;;;17.90;;
73428;SDS011;61643;49.564;17.412;2022-12-29T16:26:57;110.05;;;36.30;;
73428;SDS011;61643;49.564;17.412;2022-12-29T16:29:31;137.43;;;48.00;;
73428;SDS011;61643;49.564;17.412;2022-12-29T16:31:58;67.68;;;30.85;;
73428;SDS011;61643;49.564;17.412;2022-12-29T16:39:49;75.85;;;30.77;;
73428;SDS011;61643;49.564;17.412;2022-12-29T16:47:47;28.65;;;14.05;;
73428;SDS011;61643;49.564;17.412;2022-12-29T16:50:25;28.92;;;14.40;;
73428;SDS011;61643;49.564;17.412;2022-12-29T16:52:52;21.90;;;11.15;;
73428;SDS011;61643;49.564;17.412;2022-12-29T16:55:18;22.13;;;11.80;;
73428;SDS011;61643;49.564;17.412;2022-12-29T16:57:45;26.67;;;12.45;;
73428;SDS011;61643;49.564;17.412;2022-12-29T17:00:26;24.48;;;11.65;;
73428;SDS011;61643;49.564;17.412;2022-12-29T17:02:54;25.60;;;11.73;;
73428;SDS011;61643;49.564;17.412;2022-12-29T17:05:22;27.65;;;12.25;;
73428;SDS011;61643;49.564;17.412;2022-12-29T17:07:48;27.58;;;14.05;;
73428;SDS011;61643;49.564;17.412;2022-12-29T17:10:13;26.42;;;12.63;;
73428;SDS011;61643;49.564;17.412;2022-12-29T17:12:41;31.15;;;14.88;;
73428;SDS011;61643;49.564;17.412;2022-12-29T17:17:57;29.13;;;14.18;;